sensor_id;sensor_type;location;lat;lon;timestamp;temperature;humidity
32446;DHT22;18899;50.748;7.102;2022-10-31T00:01:34;13.40;99.90
32446;DHT22;18899;50.748;7.102;2022-10-31T00:04:00;13.30;99.90
32446;DHT22;18899;50.748;7.102;2022-10-31T00:06:26;13.30;99.90
32446;DHT22;18899;50.748;7.102;2022-10-31T00:08:58;13.40;99.90
32446;DHT22;18899;50.748;7.102;2022-10-31T00:11:24;13.40;99.90
32446;DHT22;18899;50.748;7.102;2022-10-31T00:13:50;13.40;99.90
32446;DHT22;18899;50.748;7.102;2022-10-31T00:16:17;13.40;99.90
32446;DHT22;18899;50.748;7.102;2022-10-31T00:18:43;13.40;99.90
32446;DHT22;18899;50.748;7.102;2022-10-31T00:21:09;13.30;99.90
32446;DHT22;18899;50.748;7.102;2022-10-31T00:23:35;13.30;99.90
32446;DHT22;18899;50.748;7.102;2022-10-31T00:26:02;13.20;99.90
32446;DHT22;18899;50.748;7.102;2022-10-31T00:28:29;13.10;99.90
32446;DHT22;18899;50.748;7.102;2022-10-31T00:30:58;13.10;99.90
32446;DHT22;18899;50.748;7.102;2022-10-31T00:33:24;13.20;99.90
32446;DHT22;18899;50.748;7.102;2022-10-31T00:35:50;13.20;99.90
32446;DHT22;18899;50.748;7.102;2022-10-31T00:38:16;13.20;99.90
32446;DHT22;18899;50.748;7.102;2022-10-31T00:40:41;13.20;99.90
32446;DHT22;18899;50.748;7.102;2022-10-31T00:43:08;13.20;99.90
32446;DHT22;18899;50.748;7.102;2022-10-31T00:45:34;13.30;99.90
32446;DHT22;18899;50.748;7.102;2022-10-31T00:47:59;13.30;99.90
32446;DHT22;18899;50.748;7.102;2022-10-31T00:50:25;13.20;99.90
32446;DHT22;18899;50.748;7.102;2022-10-31T00:52:50;13.20;99.90
32446;DHT22;18899;50.748;7.102;2022-10-31T00:55:16;13.20;99.90
32446;DHT22;18899;50.748;7.102;2022-10-31T00:57:41;13.10;99.90
32446;DHT22;18899;50.748;7.102;2022-10-31T01:00:07;13.10;99.90
32446;DHT22;18899;50.748;7.102;2022-10-31T01:02:33;13.00;99.90
32446;DHT22;18899;50.748;7.102;2022-10-31T01:04:59;13.00;99.90
32446;DHT22;18899;50.748;7.102;2022-10-31T01:07:24;13.10;99.90
32446;DHT22;18899;50.748;7.102;2022-10-31T01:09:50;13.20;99.90
32446;DHT22;18899;50.748;7.102;2022-10-31T01:12:15;13.20;99.90
32446;DHT22;18899;50.748;7.102;2022-10-31T01:14:44;13.40;99.90
32446;DHT22;18899;50.748;7.102;2022-10-31T01:17:11;13.40;99.90
32446;DHT22;18899;50.748;7.102;2022-10-31T01:19:36;13.40;99.90
32446;DHT22;18899;50.748;7.102;2022-10-31T01:22:02;13.40;99.90
32446;DHT22;18899;50.748;7.102;2022-10-31T01:24:30;13.40;99.90
32446;DHT22;18899;50.748;7.102;2022-10-31T01:26:55;13.50;99.90
32446;DHT22;18899;50.748;7.102;2022-10-31T01:29:21;13.50;99.90
32446;DHT22;18899;50.748;7.102;2022-10-31T01:31:46;13.50;99.90
32446;DHT22;18899;50.748;7.102;2022-10-31T01:34:16;13.60;99.90
32446;DHT22;18899;50.748;7.102;2022-10-31T01:36:42;13.60;99.90
32446;DHT22;18899;50.748;7.102;2022-10-31T01:39:14;13.50;99.90
32446;DHT22;18899;50.748;7.102;2022-10-31T01:41:48;13.30;99.90
32446;DHT22;18899;50.748;7.102;2022-10-31T01:46:44;12.90;99.90
32446;DHT22;18899;50.748;7.102;2022-10-31T01:49:33;12.80;99.90
32446;DHT22;18899;50.748;7.102;2022-10-31T01:54:36;12.50;99.90
32446;DHT22;18899;50.748;7.102;2022-10-31T01:57:04;12.40;99.90
32446;DHT22;18899;50.748;7.102;2022-10-31T01:59:33;12.30;99.90
32446;DHT22;18899;50.748;7.102;2022-10-31T02:02:01;12.30;99.90
32446;DHT22;18899;50.748;7.102;2022-10-31T02:04:27;12.20;99.90
32446;DHT22;18899;50.748;7.102;2022-10-31T02:06:58;12.20;99.90
32446;DHT22;18899;50.748;7.102;2022-10-31T02:09:26;12.10;99.90
32446;DHT22;18899;50.748;7.102;2022-10-31T02:11:54;12.10;99.90
32446;DHT22;18899;50.748;7.102;2022-10-31T02:14:26;12.00;99.90
32446;DHT22;18899;50.748;7.102;2022-10-31T02:16:55;12.10;99.90
32446;DHT22;18899;50.748;7.102;2022-10-31T02:19:34;12.20;99.90
32446;DHT22;18899;50.748;7.102;2022-10-31T02:22:24;12.20;99.90
32446;DHT22;18899;50.748;7.102;2022-10-31T02:33:59;12.90;99.90
32446;DHT22;18899;50.748;7.102;2022-10-31T02:39:17;12.90;99.90
32446;DHT22;18899;50.748;7.102;2022-10-31T02:42:09;12.90;99.90
32446;DHT22;18899;50.748;7.102;2022-10-31T02:47:34;12.90;99.90
32446;DHT22;18899;50.748;7.102;2022-10-31T02:50:14;12.80;99.90
32446;DHT22;18899;50.748;7.102;2022-10-31T02:52:43;12.70;99.90
32446;DHT22;18899;50.748;7.102;2022-10-31T02:55:13;12.70;99.90
32446;DHT22;18899;50.748;7.102;2022-10-31T02:58:06;12.80;99.90
32446;DHT22;18899;50.748;7.102;2022-10-31T03:00:41;12.70;99.90
32446;DHT22;18899;50.748;7.102;2022-10-31T03:06:09;12.60;99.90
32446;DHT22;18899;50.748;7.102;2022-10-31T03:09:11;12.60;99.90
32446;DHT22;18899;50.748;7.102;2022-10-31T03:14:41;12.50;99.90
32446;DHT22;18899;50.748;7.102;2022-10-31T03:17:13;12.70;99.90
32446;DHT22;18899;50.748;7.102;2022-10-31T03:19:43;12.70;99.90
32446;DHT22;18899;50.748;7.102;2022-10-31T03:22:20;12.80;99.90
32446;DHT22;18899;50.748;7.102;2022-10-31T03:24:47;12.90;99.90
32446;DHT22;18899;50.748;7.102;2022-10-31T03:27:18;12.90;99.90
32446;DHT22;18899;50.748;7.102;2022-10-31T03:29:45;12.90;99.90
32446;DHT22;18899;50.748;7.102;2022-10-31T03:32:26;12.90;99.90
32446;DHT22;18899;50.748;7.102;2022-10-31T03:34:57;12.90;99.90
32446;DHT22;18899;50.748;7.102;2022-10-31T03:37:27;13.00;99.90
32446;DHT22;18899;50.748;7.102;2022-10-31T03:39:56;13.20;99.90
32446;DHT22;18899;50.748;7.102;2022-10-31T03:42:25;13.10;99.90
32446;DHT22;18899;50.748;7.102;2022-10-31T03:45:03;13.10;99.90
32446;DHT22;18899;50.748;7.102;2022-10-31T03:47:30;13.20;99.90
32446;DHT22;18899;50.748;7.102;2022-10-31T03:49:56;13.20;99.90
32446;DHT22;18899;50.748;7.102;2022-10-31T03:52:27;13.20;99.90
32446;DHT22;18899;50.748;7.102;2022-10-31T03:55:13;13.30;99.90
32446;DHT22;18899;50.748;7.102;2022-10-31T03:58:03;13.20;99.90
32446;DHT22;18899;50.748;7.102;2022-10-31T04:00:33;12.90;99.90
32446;DHT22;18899;50.748;7.102;2022-10-31T04:05:31;12.50;99.90
32446;DHT22;18899;50.748;7.102;2022-10-31T04:07:58;12.20;99.90
32446;DHT22;18899;50.748;7.102;2022-10-31T04:10:26;12.10;99.90
32446;DHT22;18899;50.748;7.102;2022-10-31T04:12:58;11.90;99.90
32446;DHT22;18899;50.748;7.102;2022-10-31T04:15:26;11.90;99.90
32446;DHT22;18899;50.748;7.102;2022-10-31T04:17:55;11.90;99.90
32446;DHT22;18899;50.748;7.102;2022-10-31T04:20:31;12.00;99.90
32446;DHT22;18899;50.748;7.102;2022-10-31T04:22:58;11.90;99.90
32446;DHT22;18899;50.748;7.102;2022-10-31T04:25:24;11.90;99.90
32446;DHT22;18899;50.748;7.102;2022-10-31T04:27:49;11.90;99.90
32446;DHT22;18899;50.748;7.102;2022-10-31T04:30:15;11.80;99.90
32446;DHT22;18899;50.748;7.102;2022-10-31T04:32:40;11.70;99.90
32446;DHT22;18899;50.748;7.102;2022-10-31T04:35:06;11.70;99.90
32446;DHT22;18899;50.748;7.102;2022-10-31T04:37:32;11.90;99.90
32446;DHT22;18899;50.748;7.102;2022-10-31T04:39:57;11.80;99.90
32446;DHT22;18899;50.748;7.102;2022-10-31T04:42:23;11.80;99.90
32446;DHT22;18899;50.748;7.102;2022-10-31T04:44:48;11.60;99.90
32446;DHT22;18899;50.748;7.102;2022-10-31T04:47:14;11.50;99.90
32446;DHT22;18899;50.748;7.102;2022-10-31T04:49:39;11.40;99.90
32446;DHT22;18899;50.748;7.102;2022-10-31T04:52:05;11.30;99.90
32446;DHT22;18899;50.748;7.102;2022-10-31T04:54:31;11.30;99.90
32446;DHT22;18899;50.748;7.102;2022-10-31T04:56:56;11.30;99.90
32446;DHT22;18899;50.748;7.102;2022-10-31T04:59:22;11.20;99.90
32446;DHT22;18899;50.748;7.102;2022-10-31T05:01:47;11.20;99.90
32446;DHT22;18899;50.748;7.102;2022-10-31T05:04:13;11.20;99.90
32446;DHT22;18899;50.748;7.102;2022-10-31T05:06:38;11.10;99.90
32446;DHT22;18899;50.748;7.102;2022-10-31T05:09:04;11.00;99.90
32446;DHT22;18899;50.748;7.102;2022-10-31T05:11:29;11.00;99.90
32446;DHT22;18899;50.748;7.102;2022-10-31T05:13:55;10.90;99.90
32446;DHT22;18899;50.748;7.102;2022-10-31T05:16:20;11.00;99.90
32446;DHT22;18899;50.748;7.102;2022-10-31T05:18:46;11.00;99.90
32446;DHT22;18899;50.748;7.102;2022-10-31T05:21:11;11.00;99.90
32446;DHT22;18899;50.748;7.102;2022-10-31T05:23:38;11.10;99.90
32446;DHT22;18899;50.748;7.102;2022-10-31T05:26:04;11.10;99.90
32446;DHT22;18899;50.748;7.102;2022-10-31T05:28:30;11.10;99.90
32446;DHT22;18899;50.748;7.102;2022-10-31T05:30:55;11.10;99.90
32446;DHT22;18899;50.748;7.102;2022-10-31T05:33:21;11.00;99.90
32446;DHT22;18899;50.748;7.102;2022-10-31T05:35:46;11.00;99.90
32446;DHT22;18899;50.748;7.102;2022-10-31T05:38:12;11.00;99.90
32446;DHT22;18899;50.748;7.102;2022-10-31T05:40:37;11.00;99.90
32446;DHT22;18899;50.748;7.102;2022-10-31T05:43:03;11.00;99.90
32446;DHT22;18899;50.748;7.102;2022-10-31T05:45:28;11.10;99.90
32446;DHT22;18899;50.748;7.102;2022-10-31T05:47:59;11.00;99.90
32446;DHT22;18899;50.748;7.102;2022-10-31T05:50:26;11.10;99.90
32446;DHT22;18899;50.748;7.102;2022-10-31T05:53:01;11.30;99.90
32446;DHT22;18899;50.748;7.102;2022-10-31T05:55:28;11.50;99.90
32446;DHT22;18899;50.748;7.102;2022-10-31T05:57:54;11.60;99.90
32446;DHT22;18899;50.748;7.102;2022-10-31T06:00:22;11.80;99.90
32446;DHT22;18899;50.748;7.102;2022-10-31T06:02:48;12.00;99.90
32446;DHT22;18899;50.748;7.102;2022-10-31T06:05:14;12.00;99.90
32446;DHT22;18899;50.748;7.102;2022-10-31T06:07:39;12.00;99.90
32446;DHT22;18899;50.748;7.102;2022-10-31T06:10:06;12.00;99.90
32446;DHT22;18899;50.748;7.102;2022-10-31T06:12:33;11.90;99.90
32446;DHT22;18899;50.748;7.102;2022-10-31T06:15:06;11.90;99.90
32446;DHT22;18899;50.748;7.102;2022-10-31T06:17:33;11.90;99.90
32446;DHT22;18899;50.748;7.102;2022-10-31T06:19:59;11.90;99.90
32446;DHT22;18899;50.748;7.102;2022-10-31T06:22:24;12.00;99.90
32446;DHT22;18899;50.748;7.102;2022-10-31T06:24:50;12.00;99.90
32446;DHT22;18899;50.748;7.102;2022-10-31T06:27:15;12.00;99.90
32446;DHT22;18899;50.748;7.102;2022-10-31T06:29:41;11.90;99.90
32446;DHT22;18899;50.748;7.102;2022-10-31T06:32:10;12.10;99.90
32446;DHT22;18899;50.748;7.102;2022-10-31T06:34:37;12.40;99.90
32446;DHT22;18899;50.748;7.102;2022-10-31T06:37:03;12.50;99.90
32446;DHT22;18899;50.748;7.102;2022-10-31T06:39:31;12.60;99.90
32446;DHT22;18899;50.748;7.102;2022-10-31T06:41:57;12.50;99.90
32446;DHT22;18899;50.748;7.102;2022-10-31T06:44:22;12.40;99.90
32446;DHT22;18899;50.748;7.102;2022-10-31T06:46:48;12.30;99.90
32446;DHT22;18899;50.748;7.102;2022-10-31T06:49:14;12.40;99.90
32446;DHT22;18899;50.748;7.102;2022-10-31T06:51:40;12.30;99.90
32446;DHT22;18899;50.748;7.102;2022-10-31T06:54:05;12.20;99.90
32446;DHT22;18899;50.748;7.102;2022-10-31T06:56:31;12.10;99.90
32446;DHT22;18899;50.748;7.102;2022-10-31T06:58:56;12.30;99.90
32446;DHT22;18899;50.748;7.102;2022-10-31T07:01:22;12.30;99.90
32446;DHT22;18899;50.748;7.102;2022-10-31T07:03:48;12.50;99.90
32446;DHT22;18899;50.748;7.102;2022-10-31T07:06:13;12.60;99.90
32446;DHT22;18899;50.748;7.102;2022-10-31T07:08:39;12.70;99.90
32446;DHT22;18899;50.748;7.102;2022-10-31T07:11:05;12.50;99.90
32446;DHT22;18899;50.748;7.102;2022-10-31T07:13:31;12.40;99.90
32446;DHT22;18899;50.748;7.102;2022-10-31T07:16:03;12.40;99.90
32446;DHT22;18899;50.748;7.102;2022-10-31T07:18:29;12.40;99.90
32446;DHT22;18899;50.748;7.102;2022-10-31T07:20:55;12.30;99.90
32446;DHT22;18899;50.748;7.102;2022-10-31T07:23:21;12.40;99.90
32446;DHT22;18899;50.748;7.102;2022-10-31T07:25:47;12.50;99.90
32446;DHT22;18899;50.748;7.102;2022-10-31T07:28:12;12.70;99.90
32446;DHT22;18899;50.748;7.102;2022-10-31T07:30:38;12.80;99.90
32446;DHT22;18899;50.748;7.102;2022-10-31T07:33:04;12.90;99.90
32446;DHT22;18899;50.748;7.102;2022-10-31T07:35:30;12.90;99.90
32446;DHT22;18899;50.748;7.102;2022-10-31T07:37:56;12.90;99.90
32446;DHT22;18899;50.748;7.102;2022-10-31T07:40:23;13.00;99.90
32446;DHT22;18899;50.748;7.102;2022-10-31T07:42:51;13.20;99.90
32446;DHT22;18899;50.748;7.102;2022-10-31T07:45:19;13.60;99.90
32446;DHT22;18899;50.748;7.102;2022-10-31T07:50:18;14.10;99.90
32446;DHT22;18899;50.748;7.102;2022-10-31T07:52:44;14.30;99.90
32446;DHT22;18899;50.748;7.102;2022-10-31T07:55:15;14.40;99.90
32446;DHT22;18899;50.748;7.102;2022-10-31T07:57:41;14.50;99.90
32446;DHT22;18899;50.748;7.102;2022-10-31T08:00:09;14.50;99.90
32446;DHT22;18899;50.748;7.102;2022-10-31T08:02:35;14.60;99.90
32446;DHT22;18899;50.748;7.102;2022-10-31T08:05:01;14.70;99.90
32446;DHT22;18899;50.748;7.102;2022-10-31T08:07:28;14.70;99.90
32446;DHT22;18899;50.748;7.102;2022-10-31T08:09:55;14.90;99.90
32446;DHT22;18899;50.748;7.102;2022-10-31T08:12:21;14.80;99.90
32446;DHT22;18899;50.748;7.102;2022-10-31T08:14:47;14.60;99.90
32446;DHT22;18899;50.748;7.102;2022-10-31T08:17:13;14.70;99.90
32446;DHT22;18899;50.748;7.102;2022-10-31T08:19:39;14.40;99.90
32446;DHT22;18899;50.748;7.102;2022-10-31T08:22:05;14.50;99.90
32446;DHT22;18899;50.748;7.102;2022-10-31T08:24:31;14.50;99.90
32446;DHT22;18899;50.748;7.102;2022-10-31T08:26:59;14.60;99.90
32446;DHT22;18899;50.748;7.102;2022-10-31T08:29:25;14.80;99.90
32446;DHT22;18899;50.748;7.102;2022-10-31T08:31:51;14.80;99.90
32446;DHT22;18899;50.748;7.102;2022-10-31T08:34:17;14.70;99.90
32446;DHT22;18899;50.748;7.102;2022-10-31T08:36:43;14.70;99.90
32446;DHT22;18899;50.748;7.102;2022-10-31T08:39:11;14.50;99.90
32446;DHT22;18899;50.748;7.102;2022-10-31T08:41:37;14.60;99.90
32446;DHT22;18899;50.748;7.102;2022-10-31T08:44:03;14.60;99.90
32446;DHT22;18899;50.748;7.102;2022-10-31T08:46:29;14.70;99.90
32446;DHT22;18899;50.748;7.102;2022-10-31T08:48:55;14.40;99.90
32446;DHT22;18899;50.748;7.102;2022-10-31T08:51:21;14.20;99.90
32446;DHT22;18899;50.748;7.102;2022-10-31T08:53:47;14.10;99.90
32446;DHT22;18899;50.748;7.102;2022-10-31T08:56:13;14.00;99.90
32446;DHT22;18899;50.748;7.102;2022-10-31T08:58:39;14.00;99.90
32446;DHT22;18899;50.748;7.102;2022-10-31T09:01:05;14.10;99.90
32446;DHT22;18899;50.748;7.102;2022-10-31T09:03:31;14.40;99.90
32446;DHT22;18899;50.748;7.102;2022-10-31T09:06:01;14.70;99.90
32446;DHT22;18899;50.748;7.102;2022-10-31T09:08:29;14.90;99.90
32446;DHT22;18899;50.748;7.102;2022-10-31T09:10:56;15.20;99.90
32446;DHT22;18899;50.748;7.102;2022-10-31T09:13:26;15.50;99.90
32446;DHT22;18899;50.748;7.102;2022-10-31T09:15:56;15.70;99.90
32446;DHT22;18899;50.748;7.102;2022-10-31T09:18:23;15.90;99.90
32446;DHT22;18899;50.748;7.102;2022-10-31T09:20:50;16.30;99.90
32446;DHT22;18899;50.748;7.102;2022-10-31T09:23:19;16.50;99.90
32446;DHT22;18899;50.748;7.102;2022-10-31T09:25:46;16.60;99.90
32446;DHT22;18899;50.748;7.102;2022-10-31T09:28:14;16.80;99.90
32446;DHT22;18899;50.748;7.102;2022-10-31T09:30:41;17.00;99.90
32446;DHT22;18899;50.748;7.102;2022-10-31T09:33:10;17.30;99.90
32446;DHT22;18899;50.748;7.102;2022-10-31T09:35:37;17.90;99.90
32446;DHT22;18899;50.748;7.102;2022-10-31T09:38:14;18.50;99.90
32446;DHT22;18899;50.748;7.102;2022-10-31T09:46:15;21.00;99.90
32446;DHT22;18899;50.748;7.102;2022-10-31T09:51:57;21.30;99.90
32446;DHT22;18899;50.748;7.102;2022-10-31T09:56:50;19.90;99.90
32446;DHT22;18899;50.748;7.102;2022-10-31T10:01:59;19.50;99.90
32446;DHT22;18899;50.748;7.102;2022-10-31T10:06:52;20.10;99.90
32446;DHT22;18899;50.748;7.102;2022-10-31T10:09:21;20.10;99.90
32446;DHT22;18899;50.748;7.102;2022-10-31T10:14:46;18.10;99.90
32446;DHT22;18899;50.748;7.102;2022-10-31T10:17:41;17.60;99.90
32446;DHT22;18899;50.748;7.102;2022-10-31T10:20:38;17.60;99.90
32446;DHT22;18899;50.748;7.102;2022-10-31T10:23:45;17.80;99.90
32446;DHT22;18899;50.748;7.102;2022-10-31T10:26:21;17.40;99.90
32446;DHT22;18899;50.748;7.102;2022-10-31T10:29:06;16.80;99.90
32446;DHT22;18899;50.748;7.102;2022-10-31T10:31:40;16.70;99.90
32446;DHT22;18899;50.748;7.102;2022-10-31T10:34:46;17.00;99.90
32446;DHT22;18899;50.748;7.102;2022-10-31T10:37:27;17.40;99.90
32446;DHT22;18899;50.748;7.102;2022-10-31T10:39:56;17.20;99.90
32446;DHT22;18899;50.748;7.102;2022-10-31T10:42:26;17.20;99.90
32446;DHT22;18899;50.748;7.102;2022-10-31T10:45:17;17.60;99.90
32446;DHT22;18899;50.748;7.102;2022-10-31T10:48:07;17.90;99.90
32446;DHT22;18899;50.748;7.102;2022-10-31T10:50:41;18.10;99.90
32446;DHT22;18899;50.748;7.102;2022-10-31T10:53:42;18.20;99.90
32446;DHT22;18899;50.748;7.102;2022-10-31T10:56:47;18.20;99.90
32446;DHT22;18899;50.748;7.102;2022-10-31T10:59:16;18.40;99.90
32446;DHT22;18899;50.748;7.102;2022-10-31T11:01:43;18.70;99.90
32446;DHT22;18899;50.748;7.102;2022-10-31T11:04:36;18.90;99.90
32446;DHT22;18899;50.748;7.102;2022-10-31T11:07:10;18.90;99.90
32446;DHT22;18899;50.748;7.102;2022-10-31T11:09:36;18.90;99.90
32446;DHT22;18899;50.748;7.102;2022-10-31T11:12:11;18.90;99.90
32446;DHT22;18899;50.748;7.102;2022-10-31T11:14:52;18.90;99.90
32446;DHT22;18899;50.748;7.102;2022-10-31T11:20:20;18.60;99.90
32446;DHT22;18899;50.748;7.102;2022-10-31T11:23:01;18.50;99.90
32446;DHT22;18899;50.748;7.102;2022-10-31T11:25:27;18.50;99.90
32446;DHT22;18899;50.748;7.102;2022-10-31T11:31:29;18.80;99.90
32446;DHT22;18899;50.748;7.102;2022-10-31T11:36:31;19.10;99.90
32446;DHT22;18899;50.748;7.102;2022-10-31T11:39:00;19.10;99.90
32446;DHT22;18899;50.748;7.102;2022-10-31T11:41:34;19.10;99.90
32446;DHT22;18899;50.748;7.102;2022-10-31T11:44:27;19.10;99.90
32446;DHT22;18899;50.748;7.102;2022-10-31T11:46:54;19.20;99.90
32446;DHT22;18899;50.748;7.102;2022-10-31T11:49:22;19.20;99.90
32446;DHT22;18899;50.748;7.102;2022-10-31T11:51:54;19.30;99.90
32446;DHT22;18899;50.748;7.102;2022-10-31T11:54:26;19.10;99.90
32446;DHT22;18899;50.748;7.102;2022-10-31T11:56:52;19.10;99.90
32446;DHT22;18899;50.748;7.102;2022-10-31T11:59:49;19.10;99.90
32446;DHT22;18899;50.748;7.102;2022-10-31T12:02:18;19.10;99.90
32446;DHT22;18899;50.748;7.102;2022-10-31T12:04:52;19.20;99.90
32446;DHT22;18899;50.748;7.102;2022-10-31T12:07:20;19.30;99.90
32446;DHT22;18899;50.748;7.102;2022-10-31T12:09:46;19.30;99.90
32446;DHT22;18899;50.748;7.102;2022-10-31T12:15:29;19.30;99.90
32446;DHT22;18899;50.748;7.102;2022-10-31T12:18:31;19.30;99.90
32446;DHT22;18899;50.748;7.102;2022-10-31T12:24:56;19.20;99.90
32446;DHT22;18899;50.748;7.102;2022-10-31T12:27:11;19.30;99.90
32446;DHT22;18899;50.748;7.102;2022-10-31T12:32:35;19.30;99.90
32446;DHT22;18899;50.748;7.102;2022-10-31T12:38:05;19.20;99.90
32446;DHT22;18899;50.748;7.102;2022-10-31T12:43:35;19.10;99.90
32446;DHT22;18899;50.748;7.102;2022-10-31T12:46:04;19.10;99.90
32446;DHT22;18899;50.748;7.102;2022-10-31T12:49:02;19.00;99.90
32446;DHT22;18899;50.748;7.102;2022-10-31T12:54:21;19.00;99.90
32446;DHT22;18899;50.748;7.102;2022-10-31T12:57:09;18.90;99.90
32446;DHT22;18899;50.748;7.102;2022-10-31T12:59:43;18.90;99.90
32446;DHT22;18899;50.748;7.102;2022-10-31T13:02:31;18.90;99.90
32446;DHT22;18899;50.748;7.102;2022-10-31T13:05:04;18.90;99.90
32446;DHT22;18899;50.748;7.102;2022-10-31T13:10:27;18.90;99.90
32446;DHT22;18899;50.748;7.102;2022-10-31T13:13:00;18.90;99.90
32446;DHT22;18899;50.748;7.102;2022-10-31T13:15:32;18.90;99.90
32446;DHT22;18899;50.748;7.102;2022-10-31T13:18:03;18.90;99.90
32446;DHT22;18899;50.748;7.102;2022-10-31T13:20:42;18.80;99.90
32446;DHT22;18899;50.748;7.102;2022-10-31T13:23:31;18.80;99.90
32446;DHT22;18899;50.748;7.102;2022-10-31T13:26:03;18.80;99.90
32446;DHT22;18899;50.748;7.102;2022-10-31T13:31:09;18.90;99.90
32446;DHT22;18899;50.748;7.102;2022-10-31T13:39:18;18.90;99.90
32446;DHT22;18899;50.748;7.102;2022-10-31T13:41:52;19.00;99.90
32446;DHT22;18899;50.748;7.102;2022-10-31T13:44:25;19.10;99.90
32446;DHT22;18899;50.748;7.102;2022-10-31T13:46:52;19.00;99.90
32446;DHT22;18899;50.748;7.102;2022-10-31T13:52:23;18.90;99.90
32446;DHT22;18899;50.748;7.102;2022-10-31T13:54:51;18.90;99.90
32446;DHT22;18899;50.748;7.102;2022-10-31T13:57:32;18.80;99.90
32446;DHT22;18899;50.748;7.102;2022-10-31T14:00:04;18.70;99.90
32446;DHT22;18899;50.748;7.102;2022-10-31T14:02:33;18.70;99.90
32446;DHT22;18899;50.748;7.102;2022-10-31T14:05:05;18.70;99.90
32446;DHT22;18899;50.748;7.102;2022-10-31T14:07:32;18.70;99.90
32446;DHT22;18899;50.748;7.102;2022-10-31T14:10:02;18.70;99.90
32446;DHT22;18899;50.748;7.102;2022-10-31T14:12:30;18.70;99.90
32446;DHT22;18899;50.748;7.102;2022-10-31T14:15:05;18.70;99.90
32446;DHT22;18899;50.748;7.102;2022-10-31T14:17:50;18.70;99.90
32446;DHT22;18899;50.748;7.102;2022-10-31T14:22:43;18.70;99.90
32446;DHT22;18899;50.748;7.102;2022-10-31T14:27:56;18.60;99.90
32446;DHT22;18899;50.748;7.102;2022-10-31T14:30:25;18.60;99.90
32446;DHT22;18899;50.748;7.102;2022-10-31T14:32:54;18.60;99.90
32446;DHT22;18899;50.748;7.102;2022-10-31T14:35:25;18.70;99.90
32446;DHT22;18899;50.748;7.102;2022-10-31T14:50:47;18.70;99.90
32446;DHT22;18899;50.748;7.102;2022-10-31T14:53:24;18.80;99.90
32446;DHT22;18899;50.748;7.102;2022-10-31T14:55:56;18.80;99.90
32446;DHT22;18899;50.748;7.102;2022-10-31T14:58:27;18.90;99.90
32446;DHT22;18899;50.748;7.102;2022-10-31T15:00:56;18.90;99.90
32446;DHT22;18899;50.748;7.102;2022-10-31T15:03:38;18.90;99.90
32446;DHT22;18899;50.748;7.102;2022-10-31T15:06:14;19.00;99.90
32446;DHT22;18899;50.748;7.102;2022-10-31T15:08:45;19.00;99.90
32446;DHT22;18899;50.748;7.102;2022-10-31T15:11:25;19.00;99.90
32446;DHT22;18899;50.748;7.102;2022-10-31T15:13:55;19.00;99.90
32446;DHT22;18899;50.748;7.102;2022-10-31T15:16:27;19.00;99.90
32446;DHT22;18899;50.748;7.102;2022-10-31T15:18:57;18.90;99.90
32446;DHT22;18899;50.748;7.102;2022-10-31T15:21:25;18.90;99.90
32446;DHT22;18899;50.748;7.102;2022-10-31T15:23:55;18.90;99.90
32446;DHT22;18899;50.748;7.102;2022-10-31T15:26:23;18.80;99.90
32446;DHT22;18899;50.748;7.102;2022-10-31T15:29:00;18.80;99.90
32446;DHT22;18899;50.748;7.102;2022-10-31T15:31:28;18.70;99.90
32446;DHT22;18899;50.748;7.102;2022-10-31T15:33:54;18.60;99.90
32446;DHT22;18899;50.748;7.102;2022-10-31T15:36:25;18.60;99.90
32446;DHT22;18899;50.748;7.102;2022-10-31T15:38:52;18.50;99.90
32446;DHT22;18899;50.748;7.102;2022-10-31T15:47:19;18.30;99.90
32446;DHT22;18899;50.748;7.102;2022-10-31T15:49:52;18.10;99.90
32446;DHT22;18899;50.748;7.102;2022-10-31T15:52:38;18.10;99.90
32446;DHT22;18899;50.748;7.102;2022-10-31T15:57:43;17.90;99.90
32446;DHT22;18899;50.748;7.102;2022-10-31T16:00:40;17.80;99.90
32446;DHT22;18899;50.748;7.102;2022-10-31T16:05:45;17.60;99.90
32446;DHT22;18899;50.748;7.102;2022-10-31T16:10:56;17.40;99.90
32446;DHT22;18899;50.748;7.102;2022-10-31T16:13:28;17.40;99.90
32446;DHT22;18899;50.748;7.102;2022-10-31T16:15:57;17.30;99.90
32446;DHT22;18899;50.748;7.102;2022-10-31T16:18:25;17.30;99.90
32446;DHT22;18899;50.748;7.102;2022-10-31T16:20:53;17.20;99.90
32446;DHT22;18899;50.748;7.102;2022-10-31T16:23:21;17.20;99.90
32446;DHT22;18899;50.748;7.102;2022-10-31T16:25:48;17.10;99.90
32446;DHT22;18899;50.748;7.102;2022-10-31T16:28:26;17.20;99.90
32446;DHT22;18899;50.748;7.102;2022-10-31T16:30:55;17.20;99.90
32446;DHT22;18899;50.748;7.102;2022-10-31T16:33:31;17.20;99.90
32446;DHT22;18899;50.748;7.102;2022-10-31T16:35:59;17.20;99.90
32446;DHT22;18899;50.748;7.102;2022-10-31T16:38:26;17.20;99.90
32446;DHT22;18899;50.748;7.102;2022-10-31T16:40:51;17.20;99.90
32446;DHT22;18899;50.748;7.102;2022-10-31T16:43:19;17.20;99.90
32446;DHT22;18899;50.748;7.102;2022-10-31T16:45:51;17.20;99.90
32446;DHT22;18899;50.748;7.102;2022-10-31T16:48:21;17.20;99.90
32446;DHT22;18899;50.748;7.102;2022-10-31T16:50:49;17.10;99.90
32446;DHT22;18899;50.748;7.102;2022-10-31T16:53:15;17.00;99.90
32446;DHT22;18899;50.748;7.102;2022-10-31T16:55:59;16.90;99.90
32446;DHT22;18899;50.748;7.102;2022-10-31T16:58:30;16.90;99.90
32446;DHT22;18899;50.748;7.102;2022-10-31T17:00:57;16.90;99.90
32446;DHT22;18899;50.748;7.102;2022-10-31T17:03:24;17.00;99.90
32446;DHT22;18899;50.748;7.102;2022-10-31T17:05:50;17.00;99.90
32446;DHT22;18899;50.748;7.102;2022-10-31T17:08:16;16.90;99.90
32446;DHT22;18899;50.748;7.102;2022-10-31T17:10:43;16.90;99.90
32446;DHT22;18899;50.748;7.102;2022-10-31T17:13:20;16.90;99.90
32446;DHT22;18899;50.748;7.102;2022-10-31T17:15:49;16.90;99.90
32446;DHT22;18899;50.748;7.102;2022-10-31T17:18:16;16.80;99.90
32446;DHT22;18899;50.748;7.102;2022-10-31T17:20:43;16.80;99.90
32446;DHT22;18899;50.748;7.102;2022-10-31T17:23:10;16.70;99.90
32446;DHT22;18899;50.748;7.102;2022-10-31T17:25:36;16.70;99.90
32446;DHT22;18899;50.748;7.102;2022-10-31T17:28:02;16.60;99.90
32446;DHT22;18899;50.748;7.102;2022-10-31T17:30:28;16.60;99.90
32446;DHT22;18899;50.748;7.102;2022-10-31T17:32:53;16.50;99.90
32446;DHT22;18899;50.748;7.102;2022-10-31T17:35:20;16.30;99.90
32446;DHT22;18899;50.748;7.102;2022-10-31T17:37:46;16.10;99.90
32446;DHT22;18899;50.748;7.102;2022-10-31T17:40:17;15.90;99.90
32446;DHT22;18899;50.748;7.102;2022-10-31T17:42:55;15.80;99.90
32446;DHT22;18899;50.748;7.102;2022-10-31T17:45:23;15.70;99.90
32446;DHT22;18899;50.748;7.102;2022-10-31T17:47:49;15.60;99.90
32446;DHT22;18899;50.748;7.102;2022-10-31T17:50:17;15.80;99.90
32446;DHT22;18899;50.748;7.102;2022-10-31T17:52:43;15.80;99.90